sensor_id;sensor_type;location;lat;lon;timestamp;P1;durP1;ratioP1;P2;durP2;ratioP2
75593;SDS011;64176;49.156;7.810;2023-07-24T00:02:58;3.88;;;1.92;;
75593;SDS011;64176;49.156;7.810;2023-07-24T00:05:42;4.32;;;1.92;;
75593;SDS011;64176;49.156;7.810;2023-07-24T00:08:28;2.72;;;1.95;;
75593;SDS011;64176;49.156;7.810;2023-07-24T00:11:15;2.83;;;2.33;;
75593;SDS011;64176;49.156;7.810;2023-07-24T00:14:01;2.83;;;2.13;;
75593;SDS011;64176;49.156;7.810;2023-07-24T00:16:50;2.53;;;1.98;;
75593;SDS011;64176;49.156;7.810;2023-07-24T00:19:34;3.97;;;2.88;;
75593;SDS011;64176;49.156;7.810;2023-07-24T00:22:21;4.20;;;1.95;;
75593;SDS011;64176;49.156;7.810;2023-07-24T00:25:07;3.25;;;2.47;;
75593;SDS011;64176;49.156;7.810;2023-07-24T00:27:52;2.75;;;1.90;;
75593;SDS011;64176;49.156;7.810;2023-07-24T00:30:36;4.70;;;2.15;;
75593;SDS011;64176;49.156;7.810;2023-07-24T00:36:09;2.50;;;1.38;;
75593;SDS011;64176;49.156;7.810;2023-07-24T00:38:56;3.25;;;2.17;;
75593;SDS011;64176;49.156;7.810;2023-07-24T00:41:40;3.95;;;2.67;;
75593;SDS011;64176;49.156;7.810;2023-07-24T00:44:29;2.88;;;1.83;;
75593;SDS011;64176;49.156;7.810;2023-07-24T00:49:59;3.35;;;1.35;;
75593;SDS011;64176;49.156;7.810;2023-07-24T00:52:43;2.35;;;1.85;;
75593;SDS011;64176;49.156;7.810;2023-07-24T00:55:30;4.57;;;3.00;;
75593;SDS011;64176;49.156;7.810;2023-07-24T00:58:19;2.75;;;1.77;;
75593;SDS011;64176;49.156;7.810;2023-07-24T01:01:08;3.58;;;2.65;;
75593;SDS011;64176;49.156;7.810;2023-07-24T01:03:59;3.63;;;2.63;;
75593;SDS011;64176;49.156;7.810;2023-07-24T01:06:45;3.90;;;2.65;;
75593;SDS011;64176;49.156;7.810;2023-07-24T01:09:31;2.40;;;2.17;;
75593;SDS011;64176;49.156;7.810;2023-07-24T01:12:29;2.85;;;2.10;;
75593;SDS011;64176;49.156;7.810;2023-07-24T01:15:19;2.65;;;2.05;;
75593;SDS011;64176;49.156;7.810;2023-07-24T01:18:16;1.90;;;1.63;;
75593;SDS011;64176;49.156;7.810;2023-07-24T01:21:02;2.40;;;2.15;;
75593;SDS011;64176;49.156;7.810;2023-07-24T01:23:56;4.00;;;2.42;;
75593;SDS011;64176;49.156;7.810;2023-07-24T01:26:48;2.53;;;2.10;;
75593;SDS011;64176;49.156;7.810;2023-07-24T01:29:33;2.80;;;2.28;;
75593;SDS011;64176;49.156;7.810;2023-07-24T01:32:17;3.35;;;2.38;;
75593;SDS011;64176;49.156;7.810;2023-07-24T01:35:07;3.30;;;2.00;;
75593;SDS011;64176;49.156;7.810;2023-07-24T01:37:53;4.47;;;2.40;;
75593;SDS011;64176;49.156;7.810;2023-07-24T01:40:41;4.45;;;2.42;;
75593;SDS011;64176;49.156;7.810;2023-07-24T01:43:26;4.43;;;2.38;;
75593;SDS011;64176;49.156;7.810;2023-07-24T01:46:12;3.03;;;1.95;;
75593;SDS011;64176;49.156;7.810;2023-07-24T01:48:59;4.85;;;2.17;;
75593;SDS011;64176;49.156;7.810;2023-07-24T01:54:29;3.33;;;2.03;;
75593;SDS011;64176;49.156;7.810;2023-07-24T01:57:14;4.45;;;2.50;;
75593;SDS011;64176;49.156;7.810;2023-07-24T02:00:01;3.50;;;2.47;;
75593;SDS011;64176;49.156;7.810;2023-07-24T02:02:47;4.38;;;2.38;;
75593;SDS011;64176;49.156;7.810;2023-07-24T02:05:34;3.55;;;2.80;;
75593;SDS011;64176;49.156;7.810;2023-07-24T02:08:19;2.70;;;2.10;;
75593;SDS011;64176;49.156;7.810;2023-07-24T02:13:53;2.35;;;2.00;;
75593;SDS011;64176;49.156;7.810;2023-07-24T02:16:39;5.47;;;2.75;;
75593;SDS011;64176;49.156;7.810;2023-07-24T02:22:10;3.08;;;1.83;;
75593;SDS011;64176;49.156;7.810;2023-07-24T02:24:54;3.25;;;2.55;;
75593;SDS011;64176;49.156;7.810;2023-07-24T02:27:38;6.25;;;2.40;;
75593;SDS011;64176;49.156;7.810;2023-07-24T02:30:24;3.17;;;2.45;;
75593;SDS011;64176;49.156;7.810;2023-07-24T02:33:13;3.17;;;2.28;;
75593;SDS011;64176;49.156;7.810;2023-07-24T02:36:01;3.38;;;1.80;;
75593;SDS011;64176;49.156;7.810;2023-07-24T02:41:32;4.45;;;2.20;;
75593;SDS011;64176;49.156;7.810;2023-07-24T02:44:16;4.18;;;2.45;;
75593;SDS011;64176;49.156;7.810;2023-07-24T02:47:00;2.45;;;2.15;;
75593;SDS011;64176;49.156;7.810;2023-07-24T02:49:44;4.55;;;3.05;;
75593;SDS011;64176;49.156;7.810;2023-07-24T02:52:27;3.58;;;2.72;;
75593;SDS011;64176;49.156;7.810;2023-07-24T02:55:14;3.38;;;2.38;;
75593;SDS011;64176;49.156;7.810;2023-07-24T02:57:58;3.25;;;2.83;;
75593;SDS011;64176;49.156;7.810;2023-07-24T03:00:45;4.55;;;2.78;;
75593;SDS011;64176;49.156;7.810;2023-07-24T03:06:16;3.30;;;2.33;;
75593;SDS011;64176;49.156;7.810;2023-07-24T03:09:00;2.72;;;2.33;;
75593;SDS011;64176;49.156;7.810;2023-07-24T03:11:44;5.97;;;2.88;;
75593;SDS011;64176;49.156;7.810;2023-07-24T03:14:36;3.78;;;2.65;;
75593;SDS011;64176;49.156;7.810;2023-07-24T03:17:22;4.50;;;2.08;;
75593;SDS011;64176;49.156;7.810;2023-07-24T03:20:13;3.13;;;2.83;;
75593;SDS011;64176;49.156;7.810;2023-07-24T03:23:01;3.85;;;2.58;;
75593;SDS011;64176;49.156;7.810;2023-07-24T03:25:38;4.03;;;2.40;;
75593;SDS011;64176;49.156;7.810;2023-07-24T03:28:22;6.03;;;2.53;;
75593;SDS011;64176;49.156;7.810;2023-07-24T03:31:06;3.13;;;2.30;;
75593;SDS011;64176;49.156;7.810;2023-07-24T03:33:50;4.40;;;1.95;;
75593;SDS011;64176;49.156;7.810;2023-07-24T03:36:34;5.13;;;2.10;;
75593;SDS011;64176;49.156;7.810;2023-07-24T03:39:19;3.75;;;2.42;;
75593;SDS011;64176;49.156;7.810;2023-07-24T03:42:03;3.08;;;2.42;;
75593;SDS011;64176;49.156;7.810;2023-07-24T03:44:48;3.55;;;2.20;;
75593;SDS011;64176;49.156;7.810;2023-07-24T03:47:32;3.20;;;2.67;;
75593;SDS011;64176;49.156;7.810;2023-07-24T03:50:16;4.72;;;2.80;;
75593;SDS011;64176;49.156;7.810;2023-07-24T03:53:00;3.75;;;3.05;;
75593;SDS011;64176;49.156;7.810;2023-07-24T03:55:44;2.30;;;1.80;;
75593;SDS011;64176;49.156;7.810;2023-07-24T03:58:28;3.63;;;2.05;;
75593;SDS011;64176;49.156;7.810;2023-07-24T04:01:12;4.75;;;1.98;;
75593;SDS011;64176;49.156;7.810;2023-07-24T04:03:56;3.40;;;2.00;;
75593;SDS011;64176;49.156;7.810;2023-07-24T04:06:41;5.07;;;2.38;;
75593;SDS011;64176;49.156;7.810;2023-07-24T04:09:25;3.55;;;2.15;;
75593;SDS011;64176;49.156;7.810;2023-07-24T04:12:09;2.13;;;1.58;;
75593;SDS011;64176;49.156;7.810;2023-07-24T04:14:53;3.00;;;2.38;;
75593;SDS011;64176;49.156;7.810;2023-07-24T04:17:37;3.90;;;3.15;;
75593;SDS011;64176;49.156;7.810;2023-07-24T04:20:22;3.78;;;3.35;;
75593;SDS011;64176;49.156;7.810;2023-07-24T04:23:06;2.47;;;1.63;;
75593;SDS011;64176;49.156;7.810;2023-07-24T04:28:39;3.83;;;3.05;;
75593;SDS011;64176;49.156;7.810;2023-07-24T04:31:23;6.03;;;3.95;;
75593;SDS011;64176;49.156;7.810;2023-07-24T04:34:07;4.65;;;2.65;;
75593;SDS011;64176;49.156;7.810;2023-07-24T04:36:52;5.78;;;2.60;;
75593;SDS011;64176;49.156;7.810;2023-07-24T04:39:38;4.85;;;2.55;;
75593;SDS011;64176;49.156;7.810;2023-07-24T04:42:22;4.43;;;2.78;;
75593;SDS011;64176;49.156;7.810;2023-07-24T04:45:06;4.63;;;2.50;;
75593;SDS011;64176;49.156;7.810;2023-07-24T04:47:51;4.85;;;2.67;;
75593;SDS011;64176;49.156;7.810;2023-07-24T04:50:35;5.47;;;3.30;;
75593;SDS011;64176;49.156;7.810;2023-07-24T04:53:19;4.32;;;2.85;;
75593;SDS011;64176;49.156;7.810;2023-07-24T04:56:03;4.47;;;3.47;;
75593;SDS011;64176;49.156;7.810;2023-07-24T04:58:47;5.88;;;3.75;;
75593;SDS011;64176;49.156;7.810;2023-07-24T05:01:31;6.72;;;3.90;;
75593;SDS011;64176;49.156;7.810;2023-07-24T05:04:15;5.40;;;3.80;;
75593;SDS011;64176;49.156;7.810;2023-07-24T05:07:00;6.40;;;4.00;;
75593;SDS011;64176;49.156;7.810;2023-07-24T05:09:44;6.80;;;3.78;;
75593;SDS011;64176;49.156;7.810;2023-07-24T05:12:27;6.50;;;3.63;;
75593;SDS011;64176;49.156;7.810;2023-07-24T05:15:14;5.70;;;3.90;;
75593;SDS011;64176;49.156;7.810;2023-07-24T05:18:00;5.60;;;3.97;;
75593;SDS011;64176;49.156;7.810;2023-07-24T05:20:47;6.78;;;4.03;;
75593;SDS011;64176;49.156;7.810;2023-07-24T05:23:34;6.03;;;4.28;;
75593;SDS011;64176;49.156;7.810;2023-07-24T05:26:18;5.82;;;4.15;;
75593;SDS011;64176;49.156;7.810;2023-07-24T05:29:02;5.85;;;3.90;;
75593;SDS011;64176;49.156;7.810;2023-07-24T05:31:46;5.32;;;4.28;;
75593;SDS011;64176;49.156;7.810;2023-07-24T05:34:30;7.28;;;4.40;;
75593;SDS011;64176;49.156;7.810;2023-07-24T05:37:16;7.00;;;4.97;;
75593;SDS011;64176;49.156;7.810;2023-07-24T05:40:03;7.55;;;5.30;;
75593;SDS011;64176;49.156;7.810;2023-07-24T05:42:53;7.72;;;4.35;;
75593;SDS011;64176;49.156;7.810;2023-07-24T05:45:37;7.53;;;4.25;;
75593;SDS011;64176;49.156;7.810;2023-07-24T05:48:21;6.03;;;4.40;;
75593;SDS011;64176;49.156;7.810;2023-07-24T05:51:05;7.13;;;4.53;;
75593;SDS011;64176;49.156;7.810;2023-07-24T05:53:49;6.93;;;4.18;;
75593;SDS011;64176;49.156;7.810;2023-07-24T05:56:33;8.48;;;4.45;;
75593;SDS011;64176;49.156;7.810;2023-07-24T05:59:17;6.43;;;4.05;;
75593;SDS011;64176;49.156;7.810;2023-07-24T06:02:01;5.97;;;4.13;;
75593;SDS011;64176;49.156;7.810;2023-07-24T06:04:45;6.20;;;4.03;;
75593;SDS011;64176;49.156;7.810;2023-07-24T06:10:18;5.32;;;3.47;;
75593;SDS011;64176;49.156;7.810;2023-07-24T06:13:02;5.80;;;4.20;;
75593;SDS011;64176;49.156;7.810;2023-07-24T06:15:49;6.07;;;4.30;;
75593;SDS011;64176;49.156;7.810;2023-07-24T06:18:34;5.72;;;4.00;;
75593;SDS011;64176;49.156;7.810;2023-07-24T06:21:18;9.30;;;4.35;;
75593;SDS011;64176;49.156;7.810;2023-07-24T06:24:02;5.38;;;4.13;;
75593;SDS011;64176;49.156;7.810;2023-07-24T06:26:46;4.88;;;3.58;;
75593;SDS011;64176;49.156;7.810;2023-07-24T06:29:30;7.63;;;4.28;;
75593;SDS011;64176;49.156;7.810;2023-07-24T06:32:14;7.40;;;4.15;;
75593;SDS011;64176;49.156;7.810;2023-07-24T06:34:58;4.82;;;3.92;;
75593;SDS011;64176;49.156;7.810;2023-07-24T06:37:42;6.05;;;3.75;;
75593;SDS011;64176;49.156;7.810;2023-07-24T06:40:26;8.02;;;3.83;;
75593;SDS011;64176;49.156;7.810;2023-07-24T06:43:09;5.13;;;3.75;;
75593;SDS011;64176;49.156;7.810;2023-07-24T06:45:53;6.85;;;4.60;;
75593;SDS011;64176;49.156;7.810;2023-07-24T06:48:37;5.55;;;4.22;;
75593;SDS011;64176;49.156;7.810;2023-07-24T06:51:23;6.85;;;4.50;;
75593;SDS011;64176;49.156;7.810;2023-07-24T06:54:10;5.40;;;4.18;;
75593;SDS011;64176;49.156;7.810;2023-07-24T06:56:54;9.10;;;3.63;;
75593;SDS011;64176;49.156;7.810;2023-07-24T06:59:38;5.72;;;4.43;;
75593;SDS011;64176;49.156;7.810;2023-07-24T07:02:22;7.13;;;4.13;;
75593;SDS011;64176;49.156;7.810;2023-07-24T07:05:06;7.20;;;4.15;;
75593;SDS011;64176;49.156;7.810;2023-07-24T07:07:51;6.40;;;4.15;;
75593;SDS011;64176;49.156;7.810;2023-07-24T07:10:35;5.90;;;4.00;;
75593;SDS011;64176;49.156;7.810;2023-07-24T07:13:21;7.07;;;4.00;;
75593;SDS011;64176;49.156;7.810;2023-07-24T07:16:05;7.35;;;3.53;;
75593;SDS011;64176;49.156;7.810;2023-07-24T07:18:49;8.45;;;4.32;;
75593;SDS011;64176;49.156;7.810;2023-07-24T07:21:38;6.18;;;3.35;;
75593;SDS011;64176;49.156;7.810;2023-07-24T07:24:22;6.13;;;3.22;;
75593;SDS011;64176;49.156;7.810;2023-07-24T07:27:06;6.60;;;3.78;;
75593;SDS011;64176;49.156;7.810;2023-07-24T07:29:50;5.40;;;3.53;;
75593;SDS011;64176;49.156;7.810;2023-07-24T07:32:34;6.93;;;3.88;;
75593;SDS011;64176;49.156;7.810;2023-07-24T07:35:19;5.70;;;3.25;;
75593;SDS011;64176;49.156;7.810;2023-07-24T07:38:05;5.45;;;4.22;;
75593;SDS011;64176;49.156;7.810;2023-07-24T07:46:21;9.43;;;3.65;;
75593;SDS011;64176;49.156;7.810;2023-07-24T07:49:05;7.00;;;4.15;;
75593;SDS011;64176;49.156;7.810;2023-07-24T07:51:49;4.70;;;4.07;;
75593;SDS011;64176;49.156;7.810;2023-07-24T07:54:33;7.00;;;3.42;;
75593;SDS011;64176;49.156;7.810;2023-07-24T07:57:17;4.95;;;4.18;;
75593;SDS011;64176;49.156;7.810;2023-07-24T08:00:01;4.32;;;3.85;;
75593;SDS011;64176;49.156;7.810;2023-07-24T08:02:48;4.82;;;3.92;;
75593;SDS011;64176;49.156;7.810;2023-07-24T08:05:32;4.65;;;3.33;;
75593;SDS011;64176;49.156;7.810;2023-07-24T08:08:16;5.32;;;3.55;;
75593;SDS011;64176;49.156;7.810;2023-07-24T08:11:04;7.22;;;3.38;;
75593;SDS011;64176;49.156;7.810;2023-07-24T08:13:49;6.10;;;3.65;;
75593;SDS011;64176;49.156;7.810;2023-07-24T08:16:33;4.85;;;3.03;;
75593;SDS011;64176;49.156;7.810;2023-07-24T08:19:17;3.88;;;3.05;;
75593;SDS011;64176;49.156;7.810;2023-07-24T08:22:04;4.00;;;2.38;;
75593;SDS011;64176;49.156;7.810;2023-07-24T08:24:48;6.57;;;2.55;;
75593;SDS011;64176;49.156;7.810;2023-07-24T08:27:35;7.13;;;2.72;;
75593;SDS011;64176;49.156;7.810;2023-07-24T08:30:19;3.13;;;2.30;;
75593;SDS011;64176;49.156;7.810;2023-07-24T08:33:03;4.30;;;2.20;;
75593;SDS011;64176;49.156;7.810;2023-07-24T08:35:47;4.70;;;2.95;;
75593;SDS011;64176;49.156;7.810;2023-07-24T08:38:31;4.70;;;2.63;;
75593;SDS011;64176;49.156;7.810;2023-07-24T08:41:18;3.70;;;1.95;;
75593;SDS011;64176;49.156;7.810;2023-07-24T08:44:02;3.63;;;2.70;;
75593;SDS011;64176;49.156;7.810;2023-07-24T08:46:47;7.15;;;3.00;;
75593;SDS011;64176;49.156;7.810;2023-07-24T08:49:33;5.70;;;3.03;;
75593;SDS011;64176;49.156;7.810;2023-07-24T08:52:20;3.97;;;2.90;;
75593;SDS011;64176;49.156;7.810;2023-07-24T08:55:04;4.50;;;3.22;;
75593;SDS011;64176;49.156;7.810;2023-07-24T08:57:49;5.40;;;3.20;;
75593;SDS011;64176;49.156;7.810;2023-07-24T09:00:33;4.90;;;2.75;;
75593;SDS011;64176;49.156;7.810;2023-07-24T09:03:20;6.50;;;3.80;;
75593;SDS011;64176;49.156;7.810;2023-07-24T09:06:04;4.80;;;2.95;;
75593;SDS011;64176;49.156;7.810;2023-07-24T09:08:53;6.07;;;3.30;;
75593;SDS011;64176;49.156;7.810;2023-07-24T09:11:51;4.43;;;2.85;;
75593;SDS011;64176;49.156;7.810;2023-07-24T09:14:37;5.78;;;3.05;;
75593;SDS011;64176;49.156;7.810;2023-07-24T09:17:22;4.68;;;2.95;;
75593;SDS011;64176;49.156;7.810;2023-07-24T09:20:06;7.45;;;2.55;;
75593;SDS011;64176;49.156;7.810;2023-07-24T09:22:51;5.60;;;2.90;;
75593;SDS011;64176;49.156;7.810;2023-07-24T09:25:37;6.50;;;3.05;;
75593;SDS011;64176;49.156;7.810;2023-07-24T09:28:23;5.18;;;2.42;;
75593;SDS011;64176;49.156;7.810;2023-07-24T09:31:10;29.73;;;27.58;;
75593;SDS011;64176;49.156;7.810;2023-07-24T09:33:54;7.35;;;5.05;;
75593;SDS011;64176;49.156;7.810;2023-07-24T09:36:38;6.85;;;4.65;;
75593;SDS011;64176;49.156;7.810;2023-07-24T09:39:23;5.47;;;4.88;;
75593;SDS011;64176;49.156;7.810;2023-07-24T09:42:10;6.75;;;5.82;;
75593;SDS011;64176;49.156;7.810;2023-07-24T09:44:54;7.78;;;5.35;;
75593;SDS011;64176;49.156;7.810;2023-07-24T09:47:39;6.43;;;4.60;;
75593;SDS011;64176;49.156;7.810;2023-07-24T09:50:26;7.38;;;5.30;;
75593;SDS011;64176;49.156;7.810;2023-07-24T09:53:58;6.13;;;4.93;;
75593;SDS011;64176;49.156;7.810;2023-07-24T09:56:22;7.20;;;5.05;;
75593;SDS011;64176;49.156;7.810;2023-07-24T09:59:07;6.38;;;5.03;;
75593;SDS011;64176;49.156;7.810;2023-07-24T10:01:54;7.00;;;5.38;;
75593;SDS011;64176;49.156;7.810;2023-07-24T10:04:39;6.88;;;4.63;;
75593;SDS011;64176;49.156;7.810;2023-07-24T10:07:23;6.38;;;5.15;;
75593;SDS011;64176;49.156;7.810;2023-07-24T10:10:08;7.82;;;4.60;;
75593;SDS011;64176;49.156;7.810;2023-07-24T10:12:52;7.15;;;4.68;;
75593;SDS011;64176;49.156;7.810;2023-07-24T10:15:37;6.72;;;5.13;;
75593;SDS011;64176;49.156;7.810;2023-07-24T10:18:28;6.20;;;5.40;;
75593;SDS011;64176;49.156;7.810;2023-07-24T10:21:16;7.22;;;5.43;;
75593;SDS011;64176;49.156;7.810;2023-07-24T10:24:00;7.25;;;5.72;;
75593;SDS011;64176;49.156;7.810;2023-07-24T10:26:44;7.97;;;5.20;;
75593;SDS011;64176;49.156;7.810;2023-07-24T10:29:33;6.15;;;4.53;;
75593;SDS011;64176;49.156;7.810;2023-07-24T10:32:18;6.50;;;5.53;;
75593;SDS011;64176;49.156;7.810;2023-07-24T10:35:06;5.75;;;4.88;;
75593;SDS011;64176;49.156;7.810;2023-07-24T10:38:01;4.97;;;3.90;;
75593;SDS011;64176;49.156;7.810;2023-07-24T10:40:48;6.13;;;4.18;;
75593;SDS011;64176;49.156;7.810;2023-07-24T10:43:49;8.88;;;4.40;;
75593;SDS011;64176;49.156;7.810;2023-07-24T10:46:37;6.38;;;3.40;;
75593;SDS011;64176;49.156;7.810;2023-07-24T10:49:27;7.80;;;3.80;;
75593;SDS011;64176;49.156;7.810;2023-07-24T10:52:11;6.00;;;4.38;;
75593;SDS011;64176;49.156;7.810;2023-07-24T10:54:55;8.13;;;4.68;;
75593;SDS011;64176;49.156;7.810;2023-07-24T10:57:39;7.50;;;5.63;;
75593;SDS011;64176;49.156;7.810;2023-07-24T11:00:23;6.47;;;5.35;;
75593;SDS011;64176;49.156;7.810;2023-07-24T11:03:08;8.73;;;4.93;;
75593;SDS011;64176;49.156;7.810;2023-07-24T11:05:54;7.55;;;5.57;;
75593;SDS011;64176;49.156;7.810;2023-07-24T11:08:38;6.65;;;5.60;;
75593;SDS011;64176;49.156;7.810;2023-07-24T11:11:31;7.25;;;5.25;;
75593;SDS011;64176;49.156;7.810;2023-07-24T11:14:21;9.63;;;7.82;;
75593;SDS011;64176;49.156;7.810;2023-07-24T11:17:06;9.32;;;6.85;;
75593;SDS011;64176;49.156;7.810;2023-07-24T11:19:49;9.95;;;7.20;;
75593;SDS011;64176;49.156;7.810;2023-07-24T11:22:34;8.88;;;7.15;;
75593;SDS011;64176;49.156;7.810;2023-07-24T11:25:18;10.63;;;7.13;;
75593;SDS011;64176;49.156;7.810;2023-07-24T11:28:05;12.02;;;6.85;;
75593;SDS011;64176;49.156;7.810;2023-07-24T11:30:50;8.82;;;7.22;;
75593;SDS011;64176;49.156;7.810;2023-07-24T11:33:35;9.40;;;6.68;;
75593;SDS011;64176;49.156;7.810;2023-07-24T11:36:20;9.25;;;6.50;;
75593;SDS011;64176;49.156;7.810;2023-07-24T11:39:05;9.68;;;7.60;;
75593;SDS011;64176;49.156;7.810;2023-07-24T11:41:49;9.50;;;8.05;;
75593;SDS011;64176;49.156;7.810;2023-07-24T11:44:36;11.40;;;7.63;;
75593;SDS011;64176;49.156;7.810;2023-07-24T11:47:20;10.32;;;7.53;;
75593;SDS011;64176;49.156;7.810;2023-07-24T11:50:04;11.98;;;7.38;;
75593;SDS011;64176;49.156;7.810;2023-07-24T11:52:50;10.25;;;6.97;;
75593;SDS011;64176;49.156;7.810;2023-07-24T11:55:35;10.77;;;8.45;;
75593;SDS011;64176;49.156;7.810;2023-07-24T11:58:20;9.15;;;7.07;;
75593;SDS011;64176;49.156;7.810;2023-07-24T12:01:05;9.73;;;8.73;;
75593;SDS011;64176;49.156;7.810;2023-07-24T12:03:48;12.20;;;7.55;;
75593;SDS011;64176;49.156;7.810;2023-07-24T12:06:33;11.07;;;7.75;;
75593;SDS011;64176;49.156;7.810;2023-07-24T12:09:19;10.60;;;8.68;;
75593;SDS011;64176;49.156;7.810;2023-07-24T12:12:06;10.60;;;7.45;;
75593;SDS011;64176;49.156;7.810;2023-07-24T12:14:52;10.07;;;8.07;;
75593;SDS011;64176;49.156;7.810;2023-07-24T12:17:36;11.00;;;8.57;;
75593;SDS011;64176;49.156;7.810;2023-07-24T12:20:23;9.80;;;8.50;;
75593;SDS011;64176;49.156;7.810;2023-07-24T12:23:08;10.43;;;7.07;;
75593;SDS011;64176;49.156;7.810;2023-07-24T12:25:52;9.88;;;7.28;;
75593;SDS011;64176;49.156;7.810;2023-07-24T12:28:36;9.77;;;7.00;;
75593;SDS011;64176;49.156;7.810;2023-07-24T12:31:20;11.18;;;7.15;;
75593;SDS011;64176;49.156;7.810;2023-07-24T12:34:03;9.63;;;7.00;;
75593;SDS011;64176;49.156;7.810;2023-07-24T12:36:48;12.70;;;7.38;;
75593;SDS011;64176;49.156;7.810;2023-07-24T12:39:32;11.70;;;6.93;;
75593;SDS011;64176;49.156;7.810;2023-07-24T12:42:16;10.45;;;6.28;;
75593;SDS011;64176;49.156;7.810;2023-07-24T12:45:03;8.50;;;6.30;;
75593;SDS011;64176;49.156;7.810;2023-07-24T12:47:47;11.50;;;6.65;;
75593;SDS011;64176;49.156;7.810;2023-07-24T12:50:32;9.15;;;5.53;;
75593;SDS011;64176;49.156;7.810;2023-07-24T12:53:17;9.77;;;6.53;;
75593;SDS011;64176;49.156;7.810;2023-07-24T12:56:01;9.10;;;5.80;;
75593;SDS011;64176;49.156;7.810;2023-07-24T12:58:47;8.25;;;5.53;;
75593;SDS011;64176;49.156;7.810;2023-07-24T13:01:31;10.07;;;6.10;;
75593;SDS011;64176;49.156;7.810;2023-07-24T13:04:15;9.75;;;6.47;;
75593;SDS011;64176;49.156;7.810;2023-07-24T13:06:59;9.10;;;6.95;;
75593;SDS011;64176;49.156;7.810;2023-07-24T13:09:46;8.75;;;6.85;;
75593;SDS011;64176;49.156;7.810;2023-07-24T13:12:30;9.07;;;5.68;;
75593;SDS011;64176;49.156;7.810;2023-07-24T13:15:14;8.23;;;5.97;;
75593;SDS011;64176;49.156;7.810;2023-07-24T13:18:00;10.38;;;7.18;;
75593;SDS011;64176;49.156;7.810;2023-07-24T13:20:44;10.38;;;7.00;;
75593;SDS011;64176;49.156;7.810;2023-07-24T13:23:28;9.63;;;7.47;;
75593;SDS011;64176;49.156;7.810;2023-07-24T13:26:12;11.23;;;7.60;;
75593;SDS011;64176;49.156;7.810;2023-07-24T13:28:59;10.05;;;5.88;;
75593;SDS011;64176;49.156;7.810;2023-07-24T13:31:43;9.63;;;6.13;;
75593;SDS011;64176;49.156;7.810;2023-07-24T13:34:28;9.70;;;7.43;;
75593;SDS011;64176;49.156;7.810;2023-07-24T13:37:12;9.73;;;7.40;;
75593;SDS011;64176;49.156;7.810;2023-07-24T13:39:59;9.38;;;6.55;;
75593;SDS011;64176;49.156;7.810;2023-07-24T13:42:48;10.25;;;6.88;;
75593;SDS011;64176;49.156;7.810;2023-07-24T13:45:32;9.73;;;6.20;;
75593;SDS011;64176;49.156;7.810;2023-07-24T13:48:16;8.25;;;6.18;;
75593;SDS011;64176;49.156;7.810;2023-07-24T13:51:02;10.85;;;6.55;;
75593;SDS011;64176;49.156;7.810;2023-07-24T13:53:46;10.93;;;6.20;;
75593;SDS011;64176;49.156;7.810;2023-07-24T13:56:31;11.35;;;6.90;;
75593;SDS011;64176;49.156;7.810;2023-07-24T13:59:18;5.93;;;3.15;;
75593;SDS011;64176;49.156;7.810;2023-07-24T14:02:03;4.47;;;2.75;;
75593;SDS011;64176;49.156;7.810;2023-07-24T14:04:50;7.85;;;3.65;;
75593;SDS011;64176;49.156;7.810;2023-07-24T14:07:34;4.43;;;3.13;;
75593;SDS011;64176;49.156;7.810;2023-07-24T14:10:18;8.90;;;3.25;;
75593;SDS011;64176;49.156;7.810;2023-07-24T14:15:54;4.95;;;3.35;;
75593;SDS011;64176;49.156;7.810;2023-07-24T14:18:38;4.90;;;3.38;;
75593;SDS011;64176;49.156;7.810;2023-07-24T14:21:24;4.75;;;2.88;;
75593;SDS011;64176;49.156;7.810;2023-07-24T14:24:08;4.55;;;2.55;;
75593;SDS011;64176;49.156;7.810;2023-07-24T14:26:52;5.15;;;2.92;;
75593;SDS011;64176;49.156;7.810;2023-07-24T14:29:36;5.65;;;3.45;;
75593;SDS011;64176;49.156;7.810;2023-07-24T14:32:20;6.57;;;3.70;;
75593;SDS011;64176;49.156;7.810;2023-07-24T14:35:07;8.88;;;4.85;;
75593;SDS011;64176;49.156;7.810;2023-07-24T14:37:51;5.57;;;3.13;;
75593;SDS011;64176;49.156;7.810;2023-07-24T14:40:36;6.13;;;2.97;;
75593;SDS011;64176;49.156;7.810;2023-07-24T14:43:20;4.28;;;2.33;;
75593;SDS011;64176;49.156;7.810;2023-07-24T14:46:04;3.92;;;2.47;;
75593;SDS011;64176;49.156;7.810;2023-07-24T14:48:48;2.50;;;2.30;;
75593;SDS011;64176;49.156;7.810;2023-07-24T14:51:32;3.25;;;2.38;;
75593;SDS011;64176;49.156;7.810;2023-07-24T14:54:19;3.38;;;1.90;;
75593;SDS011;64176;49.156;7.810;2023-07-24T14:57:03;3.70;;;2.42;;
75593;SDS011;64176;49.156;7.810;2023-07-24T14:59:47;2.40;;;1.60;;
75593;SDS011;64176;49.156;7.810;2023-07-24T15:02:34;3.30;;;2.35;;
75593;SDS011;64176;49.156;7.810;2023-07-24T15:05:18;4.72;;;2.28;;
75593;SDS011;64176;49.156;7.810;2023-07-24T15:08:02;4.07;;;2.00;;
75593;SDS011;64176;49.156;7.810;2023-07-24T15:10:46;4.53;;;2.50;;
75593;SDS011;64176;49.156;7.810;2023-07-24T15:13:30;3.78;;;2.70;;
75593;SDS011;64176;49.156;7.810;2023-07-24T15:16:14;3.55;;;2.45;;
75593;SDS011;64176;49.156;7.810;2023-07-24T15:19:01;2.67;;;2.47;;
75593;SDS011;64176;49.156;7.810;2023-07-24T15:21:45;2.95;;;2.35;;
75593;SDS011;64176;49.156;7.810;2023-07-24T15:24:29;4.85;;;2.67;;
75593;SDS011;64176;49.156;7.810;2023-07-24T15:27:13;2.72;;;1.75;;
75593;SDS011;64176;49.156;7.810;2023-07-24T15:29:57;2.47;;;2.03;;
75593;SDS011;64176;49.156;7.810;2023-07-24T15:32:41;3.15;;;1.75;;
75593;SDS011;64176;49.156;7.810;2023-07-24T15:35:25;2.95;;;1.58;;
75593;SDS011;64176;49.156;7.810;2023-07-24T15:38:09;1.60;;;1.38;;
75593;SDS011;64176;49.156;7.810;2023-07-24T15:40:53;2.83;;;1.45;;
75593;SDS011;64176;49.156;7.810;2023-07-24T15:43:37;2.33;;;1.10;;
75593;SDS011;64176;49.156;7.810;2023-07-24T15:46:21;2.38;;;1.50;;
75593;SDS011;64176;49.156;7.810;2023-07-24T15:49:05;2.28;;;1.75;;
75593;SDS011;64176;49.156;7.810;2023-07-24T15:51:49;2.08;;;1.35;;
75593;SDS011;64176;49.156;7.810;2023-07-24T15:54:33;1.67;;;1.30;;
75593;SDS011;64176;49.156;7.810;2023-07-24T15:57:19;2.28;;;1.40;;
75593;SDS011;64176;49.156;7.810;2023-07-24T16:00:04;1.80;;;1.08;;
75593;SDS011;64176;49.156;7.810;2023-07-24T16:02:56;1.98;;;1.33;;
75593;SDS011;64176;49.156;7.810;2023-07-24T16:05:40;1.40;;;1.27;;
75593;SDS011;64176;49.156;7.810;2023-07-24T16:08:24;3.05;;;1.00;;
75593;SDS011;64176;49.156;7.810;2023-07-24T16:11:08;1.67;;;1.30;;
75593;SDS011;64176;49.156;7.810;2023-07-24T16:13:54;1.35;;;1.20;;
75593;SDS011;64176;49.156;7.810;2023-07-24T16:16:38;2.30;;;1.23;;
75593;SDS011;64176;49.156;7.810;2023-07-24T16:19:22;2.90;;;1.35;;
75593;SDS011;64176;49.156;7.810;2023-07-24T16:22:06;1.85;;;1.45;;
75593;SDS011;64176;49.156;7.810;2023-07-24T16:24:51;1.90;;;0.90;;
75593;SDS011;64176;49.156;7.810;2023-07-24T16:27:35;1.92;;;1.63;;
75593;SDS011;64176;49.156;7.810;2023-07-24T16:30:19;1.60;;;1.25;;
75593;SDS011;64176;49.156;7.810;2023-07-24T16:33:05;1.90;;;1.05;;
75593;SDS011;64176;49.156;7.810;2023-07-24T16:35:49;1.67;;;1.30;;
75593;SDS011;64176;49.156;7.810;2023-07-24T16:38:34;1.98;;;0.98;;
75593;SDS011;64176;49.156;7.810;2023-07-24T16:41:18;2.53;;;1.30;;
75593;SDS011;64176;49.156;7.810;2023-07-24T16:44:02;2.47;;;1.65;;
75593;SDS011;64176;49.156;7.810;2023-07-24T16:46:46;2.05;;;1.38;;
75593;SDS011;64176;49.156;7.810;2023-07-24T16:49:30;1.85;;;1.55;;
75593;SDS011;64176;49.156;7.810;2023-07-24T16:52:14;1.95;;;1.35;;
75593;SDS011;64176;49.156;7.810;2023-07-24T16:54:58;1.98;;;1.17;;
75593;SDS011;64176;49.156;7.810;2023-07-24T16:57:42;29.85;;;3.95;;
75593;SDS011;64176;49.156;7.810;2023-07-24T17:00:27;2.22;;;0.98;;
75593;SDS011;64176;49.156;7.810;2023-07-24T17:03:11;1.50;;;0.90;;
75593;SDS011;64176;49.156;7.810;2023-07-24T17:05:55;1.45;;;0.90;;
75593;SDS011;64176;49.156;7.810;2023-07-24T17:08:40;2.72;;;1.83;;